createdAt,value
2019-03-11T00:00:07.452Z,1.60
2019-03-11T00:02:36.338Z,1.70
2019-03-11T00:05:05.415Z,2.17
2019-03-11T00:07:34.244Z,2.10
2019-03-11T00:10:03.140Z,1.87
2019-03-11T00:12:32.048Z,1.77
2019-03-11T00:15:00.939Z,1.97
2019-03-11T00:17:29.833Z,2.07
2019-03-11T00:19:58.745Z,1.87
2019-03-11T00:22:27.567Z,1.70
2019-03-11T00:24:56.357Z,2.17
2019-03-11T00:27:25.169Z,2.17
2019-03-11T00:29:54.038Z,2.17
2019-03-11T00:32:22.843Z,2.03
2019-03-11T00:34:51.727Z,2.10
2019-03-11T00:37:20.607Z,2.53
2019-03-11T00:39:49.438Z,2.90
2019-03-11T00:42:18.326Z,2.30
2019-03-11T00:44:47.168Z,2.83
2019-03-11T00:47:15.988Z,2.77
2019-03-11T00:49:44.805Z,2.90
2019-03-11T00:52:13.654Z,2.75
2019-03-11T00:54:42.511Z,2.87
2019-03-11T00:57:11.558Z,3.10
2019-03-11T00:59:40.357Z,3.27
2019-03-11T01:02:09.346Z,3.10
2019-03-11T01:04:38.204Z,3.27
2019-03-11T01:07:07.140Z,3.10
2019-03-11T01:09:36.161Z,3.73
2019-03-11T01:12:05.166Z,3.60
2019-03-11T01:14:35.851Z,3.40
2019-03-11T01:17:04.692Z,3.57
2019-03-11T01:19:33.569Z,3.73
2019-03-11T01:22:02.639Z,4.50
2019-03-11T01:24:31.511Z,3.40
2019-03-11T01:27:00.328Z,3.80
2019-03-11T01:29:29.217Z,3.73
2019-03-11T01:31:58.010Z,3.80
2019-03-11T01:34:27.195Z,4.10
2019-03-11T01:36:56.503Z,4.50
2019-03-11T01:39:25.425Z,4.93
2019-03-11T01:41:54.331Z,4.20
2019-03-11T01:44:23.360Z,3.87
2019-03-11T01:46:52.470Z,4.00
2019-03-11T01:49:23.779Z,4.23
2019-03-11T01:51:51.901Z,3.77
2019-03-11T01:54:20.874Z,3.30
2019-03-11T01:56:49.701Z,3.87
2019-03-11T01:59:18.637Z,4.30
2019-03-11T02:01:48.593Z,3.87
2019-03-11T02:04:17.613Z,4.03
2019-03-11T02:06:46.431Z,4.07
2019-03-11T02:09:15.575Z,4.10
2019-03-11T02:11:44.510Z,3.43
2019-03-11T02:14:13.624Z,4.80
2019-03-11T02:16:42.658Z,3.57
2019-03-11T02:19:11.656Z,3.70
2019-03-11T02:21:40.726Z,4.00
2019-03-11T02:24:09.798Z,3.23
2019-03-11T02:26:38.684Z,3.50
2019-03-11T02:29:07.524Z,4.07
2019-03-11T02:31:36.606Z,3.60
2019-03-11T02:34:05.630Z,3.37
2019-03-11T02:36:34.557Z,3.60
2019-03-11T02:39:03.914Z,3.60
2019-03-11T02:41:32.726Z,3.40
2019-03-11T02:44:02.129Z,3.20
2019-03-11T02:46:31.012Z,4.00
2019-03-11T02:48:59.852Z,4.67
2019-03-11T02:51:28.657Z,3.87
2019-03-11T02:53:57.481Z,4.27
2019-03-11T02:56:26.293Z,3.23
2019-03-11T02:58:55.080Z,3.83
2019-03-11T03:01:41.453Z,4.00
2019-03-11T03:04:14.985Z,3.60
2019-03-11T03:06:43.932Z,3.27
2019-03-11T03:09:14.388Z,2.77
2019-03-11T03:11:43.392Z,2.73
2019-03-11T03:14:12.206Z,2.30
2019-03-11T03:16:41.022Z,2.67
2019-03-11T03:19:09.839Z,3.00
2019-03-11T03:21:38.693Z,3.30
2019-03-11T03:24:07.593Z,2.73
2019-03-11T03:26:36.491Z,2.60
2019-03-11T03:29:05.470Z,2.67
2019-03-11T03:31:34.289Z,2.70
2019-03-11T03:34:03.320Z,2.70
2019-03-11T03:36:33.284Z,2.70
2019-03-11T03:39:02.178Z,2.60
2019-03-11T03:41:31.077Z,2.40
2019-03-11T03:44:00.094Z,2.33
2019-03-11T03:46:28.984Z,2.80
2019-03-11T03:48:57.858Z,2.40
2019-03-11T03:51:26.689Z,2.60
2019-03-11T03:53:55.589Z,2.73
2019-03-11T03:56:24.451Z,2.83
2019-03-11T03:58:53.321Z,2.97
2019-03-11T04:01:22.226Z,2.90
2019-03-11T04:03:51.161Z,2.77
2019-03-11T04:06:19.961Z,3.27
2019-03-11T04:08:48.844Z,2.63
2019-03-11T04:11:17.750Z,3.93
2019-03-11T04:13:46.548Z,3.23
2019-03-11T04:16:15.499Z,3.90
2019-03-11T04:18:57.054Z,3.47
2019-03-11T04:21:26.053Z,4.17
2019-03-11T04:23:54.840Z,3.50
2019-03-11T04:26:28.789Z,4.30
2019-03-11T04:28:57.854Z,4.33
2019-03-11T04:31:26.746Z,3.90
2019-03-11T04:33:55.809Z,4.70
2019-03-11T04:36:24.599Z,4.60
2019-03-11T04:38:53.467Z,5.10
2019-03-11T04:41:22.280Z,5.00
2019-03-11T04:43:51.100Z,4.53
2019-03-11T04:46:19.989Z,5.47
2019-03-11T04:48:48.939Z,4.60
2019-03-11T04:51:17.812Z,4.60
2019-03-11T04:53:46.625Z,4.53
2019-03-11T04:56:15.526Z,4.80
2019-03-11T04:58:44.389Z,4.50
2019-03-11T05:01:13.349Z,4.63
2019-03-11T05:03:42.145Z,5.10
2019-03-11T05:06:11.005Z,4.97
2019-03-11T05:08:39.971Z,4.30
2019-03-11T05:11:08.835Z,4.57
2019-03-11T05:13:37.615Z,4.73
2019-03-11T05:16:06.564Z,4.43
2019-03-11T05:18:35.432Z,4.37
2019-03-11T05:21:04.314Z,4.10
2019-03-11T05:23:33.116Z,4.00
2019-03-11T05:26:01.924Z,5.43
2019-03-11T05:28:30.748Z,4.20
2019-03-11T05:30:59.637Z,4.47
2019-03-11T05:33:28.508Z,4.97
2019-03-11T05:35:57.347Z,4.57
2019-03-11T05:38:26.265Z,4.30
2019-03-11T05:40:55.077Z,4.70
2019-03-11T05:43:23.921Z,4.17
2019-03-11T05:45:52.735Z,4.20
2019-03-11T05:48:21.567Z,4.80
2019-03-11T05:50:50.441Z,3.80
2019-03-11T05:53:19.284Z,4.13
2019-03-11T05:55:48.292Z,4.77
2019-03-11T05:58:17.148Z,4.00
2019-03-11T06:00:45.981Z,3.13
2019-03-11T06:03:14.865Z,2.80
2019-03-11T06:05:43.659Z,3.70
2019-03-11T06:08:21.159Z,5.35
2019-03-11T06:10:50.041Z,4.30
2019-03-11T06:13:18.948Z,4.77
2019-03-11T06:15:47.802Z,4.93
2019-03-11T06:18:35.480Z,4.70
2019-03-11T06:21:22.001Z,5.13
2019-03-11T06:23:50.822Z,4.50
2019-03-11T06:26:19.823Z,4.40
2019-03-11T06:28:48.782Z,4.63
2019-03-11T06:31:20.496Z,4.27
2019-03-11T06:33:49.508Z,11.53
2019-03-11T06:36:18.603Z,5.70
2019-03-11T06:38:47.505Z,3.00
2019-03-11T06:41:16.359Z,3.17
2019-03-11T06:43:45.374Z,3.00
2019-03-11T06:46:14.284Z,3.10
2019-03-11T06:48:43.213Z,2.80
2019-03-11T06:51:12.776Z,3.07
2019-03-11T06:53:41.650Z,3.10
2019-03-11T06:56:10.582Z,3.03
2019-03-11T06:58:39.527Z,3.50
2019-03-11T07:01:09.161Z,3.10
2019-03-11T07:03:38.321Z,3.07
2019-03-11T07:06:07.664Z,7.57
2019-03-11T07:08:37.137Z,3.03
2019-03-11T07:11:06.141Z,7.53
2019-03-11T07:13:34.942Z,4.90
2019-03-11T07:16:04.011Z,7.83
2019-03-11T07:18:33.005Z,3.50
2019-03-11T07:21:01.970Z,3.97
2019-03-11T07:23:30.922Z,7.87
2019-03-11T07:25:59.852Z,5.63
2019-03-11T07:28:28.798Z,6.37
2019-03-11T07:30:57.733Z,5.17
2019-03-11T07:33:26.568Z,41.00
2019-03-11T07:35:55.568Z,6.90
2019-03-11T07:38:24.591Z,7.30
2019-03-11T07:40:53.571Z,3.93
2019-03-11T07:43:22.501Z,4.40
2019-03-11T07:45:51.345Z,2.70
2019-03-11T07:48:20.238Z,4.20
2019-03-11T07:50:49.370Z,3.27
2019-03-11T07:53:18.395Z,5.67
2019-03-11T07:55:47.381Z,5.57
2019-03-11T07:58:16.382Z,8.50
2019-03-11T08:00:53.487Z,9.90
2019-03-11T08:03:15.964Z,7.93
2019-03-11T08:05:44.900Z,11.20
2019-03-11T08:08:13.705Z,4.90
2019-03-11T08:10:42.590Z,5.63
2019-03-11T08:13:11.414Z,7.37
2019-03-11T08:15:40.340Z,5.47
2019-03-11T08:18:10.850Z,9.93
2019-03-11T08:20:39.886Z,5.37
2019-03-11T08:23:08.731Z,8.53
2019-03-11T08:25:37.574Z,16.13
2019-03-11T08:28:06.469Z,6.00
2019-03-11T08:30:35.417Z,5.90
2019-03-11T08:33:04.265Z,5.13
2019-03-11T08:35:33.192Z,8.03
2019-03-11T08:38:04.904Z,5.27
2019-03-11T08:40:32.785Z,5.13
2019-03-11T08:43:01.669Z,13.43
2019-03-11T08:45:30.643Z,3.97
2019-03-11T08:47:59.759Z,5.73
2019-03-11T08:50:28.658Z,8.03
2019-03-11T08:52:57.549Z,4.67
2019-03-11T08:55:26.407Z,4.00
2019-03-11T08:57:55.228Z,4.93
2019-03-11T09:00:24.291Z,5.63
2019-03-11T09:02:53.294Z,4.53
2019-03-11T09:05:24.332Z,3.87
2019-03-11T09:07:52.835Z,4.10
2019-03-11T09:10:21.878Z,6.83
2019-03-11T09:12:50.768Z,5.43
2019-03-11T09:15:19.732Z,5.03
2019-03-11T09:17:48.800Z,5.63
2019-03-11T09:20:17.982Z,4.43
2019-03-11T09:22:46.921Z,8.93
2019-03-11T09:25:15.837Z,3.97
2019-03-11T09:27:44.834Z,3.37
2019-03-11T09:30:14.538Z,4.10
2019-03-11T09:32:43.396Z,3.60
2019-03-11T09:35:12.384Z,3.50
2019-03-11T09:37:41.348Z,4.27
2019-03-11T09:40:11.642Z,4.40
2019-03-11T09:42:40.634Z,4.10
2019-03-11T09:45:10.672Z,4.03
2019-03-11T09:47:39.463Z,4.60
2019-03-11T09:50:09.245Z,7.83
2019-03-11T09:52:38.181Z,4.83
2019-03-11T09:55:08.531Z,8.30
2019-03-11T09:57:37.342Z,3.87
2019-03-11T10:00:10.050Z,11.93
2019-03-11T10:02:38.908Z,6.25
2019-03-11T10:05:08.268Z,5.13
2019-03-11T10:07:37.141Z,10.27
2019-03-11T10:10:07.337Z,9.07
2019-03-11T10:12:36.166Z,3.57
2019-03-11T10:15:05.634Z,3.63
2019-03-11T10:17:34.463Z,6.07
2019-03-11T10:20:03.438Z,4.07
2019-03-11T10:22:32.229Z,4.17
2019-03-11T10:25:01.106Z,3.33
2019-03-11T10:27:30.010Z,5.33
2019-03-11T10:29:58.877Z,6.90
2019-03-11T10:32:27.670Z,3.90
2019-03-11T10:34:56.552Z,4.27
2019-03-11T10:37:25.409Z,2.63
2019-03-11T10:39:54.241Z,3.23
2019-03-11T10:42:23.124Z,11.93
2019-03-11T10:44:56.286Z,4.60
2019-03-11T10:47:25.136Z,4.93
2019-03-11T10:49:54.089Z,5.07
2019-03-11T10:52:22.990Z,4.00
2019-03-11T10:54:51.824Z,5.10
2019-03-11T10:57:20.796Z,6.00
2019-03-11T10:59:49.596Z,2.93
2019-03-11T11:02:18.628Z,3.57
2019-03-11T11:04:48.135Z,3.10
2019-03-11T11:07:17.077Z,5.57
2019-03-11T11:09:45.417Z,3.67
2019-03-11T11:12:13.757Z,2.57
2019-03-11T11:14:42.767Z,3.13
2019-03-11T11:17:11.595Z,3.13
2019-03-11T11:19:40.509Z,3.10
2019-03-11T11:22:09.397Z,3.33
2019-03-11T11:24:38.185Z,5.40
2019-03-11T11:27:07.046Z,3.60
2019-03-11T11:29:35.863Z,2.50
2019-03-11T11:32:04.893Z,2.63
2019-03-11T11:34:33.776Z,7.63
2019-03-11T11:37:02.674Z,4.03
2019-03-11T11:39:31.462Z,3.10
2019-03-11T11:42:00.336Z,4.17
2019-03-11T11:44:29.128Z,4.47
2019-03-11T11:46:57.925Z,4.67
2019-03-11T11:49:26.757Z,7.30
2019-03-11T11:51:55.713Z,4.47
2019-03-11T11:58:56.121Z,6.13
2019-03-11T12:02:03.347Z,2.90
2019-03-11T12:04:20.589Z,2.60
2019-03-11T12:07:30.199Z,2.63
2019-03-11T12:10:20.627Z,5.23
2019-03-11T12:12:49.507Z,5.37
2019-03-11T12:15:18.449Z,5.00
2019-03-11T12:17:47.431Z,5.07
2019-03-11T12:20:18.045Z,2.87
2019-03-11T12:22:47.068Z,5.47
2019-03-11T12:25:16.586Z,6.37
2019-03-11T12:27:53.536Z,3.87
2019-03-11T12:30:18.433Z,2.47
2019-03-11T12:32:47.569Z,3.57
2019-03-11T12:35:16.538Z,5.07
2019-03-11T12:37:45.624Z,3.13
2019-03-11T12:40:14.933Z,2.80
2019-03-11T12:42:43.802Z,1.90
2019-03-11T12:45:13.398Z,5.20
2019-03-11T12:47:42.383Z,3.00
2019-03-11T12:50:14.794Z,2.50
2019-03-11T12:52:43.909Z,3.63
2019-03-11T12:55:12.805Z,2.40
2019-03-11T12:57:41.705Z,1.40
2019-03-11T13:00:12.690Z,3.17
2019-03-11T13:02:41.528Z,2.93
2019-03-11T13:05:11.105Z,3.50
2019-03-11T13:07:39.896Z,2.87
2019-03-11T13:10:10.259Z,2.17
2019-03-11T13:12:39.064Z,2.00
2019-03-11T13:15:08.859Z,2.23
2019-03-11T13:17:37.747Z,2.47
2019-03-11T13:20:08.959Z,2.50
2019-03-11T13:22:37.785Z,2.90
2019-03-11T13:25:06.995Z,2.50
2019-03-11T13:27:54.097Z,3.40
2019-03-11T13:30:35.119Z,2.80
2019-03-11T13:33:16.018Z,2.70
2019-03-11T13:35:56.887Z,4.77
2019-03-11T13:38:37.460Z,3.50
2019-03-11T13:41:18.418Z,2.17
2019-03-11T13:43:59.700Z,2.73
2019-03-11T13:46:40.390Z,3.53
2019-03-11T13:49:20.892Z,2.93
2019-03-11T13:52:01.620Z,2.70
2019-03-11T13:54:42.321Z,2.33
2019-03-11T13:57:22.983Z,2.60
2019-03-11T14:00:03.583Z,3.43
2019-03-11T14:02:44.484Z,2.60
2019-03-11T14:05:13.539Z,3.43
2019-03-11T14:08:01.588Z,2.47
2019-03-11T14:10:49.621Z,2.60
2019-03-11T14:13:37.686Z,2.33
2019-03-11T14:16:25.789Z,1.90
2019-03-11T14:19:13.927Z,2.80
2019-03-11T14:22:02.045Z,2.90
2019-03-11T14:24:50.134Z,2.53
2019-03-11T14:27:38.265Z,2.60
2019-03-11T14:30:26.391Z,2.30
2019-03-11T14:33:14.437Z,2.00
2019-03-11T14:36:02.591Z,1.87
2019-03-11T14:38:50.773Z,2.10
2019-03-11T14:41:38.898Z,2.50
2019-03-11T14:44:26.935Z,2.47
2019-03-11T14:46:55.969Z,2.07
2019-03-11T14:49:44.037Z,2.20
2019-03-11T14:52:32.194Z,2.00
2019-03-11T14:55:20.425Z,2.20
2019-03-11T14:58:08.466Z,2.50
2019-03-11T15:00:49.573Z,2.70
2019-03-11T15:03:30.395Z,2.77
2019-03-11T15:06:11.709Z,2.40
2019-03-11T15:08:52.737Z,3.43
2019-03-11T15:11:33.855Z,2.30
2019-03-11T15:14:14.568Z,2.57
2019-03-11T15:19:37.571Z,3.37
2019-03-11T15:22:18.410Z,2.80
2019-03-11T15:24:58.933Z,3.20
2019-03-11T15:27:39.658Z,3.20
2019-03-11T15:30:20.515Z,3.40
2019-03-11T15:33:01.660Z,2.70
2019-03-11T15:35:42.297Z,3.23
2019-03-11T15:38:23.648Z,3.00
2019-03-11T15:41:04.211Z,3.27
2019-03-11T15:43:44.726Z,3.40
2019-03-11T15:46:25.481Z,3.40
2019-03-11T15:49:06.461Z,3.67
2019-03-11T15:51:46.972Z,4.17
2019-03-11T15:54:15.923Z,3.43
2019-03-11T15:57:04.176Z,3.63
2019-03-11T15:59:33.208Z,3.43
2019-03-11T16:02:14.019Z,3.10
2019-03-11T16:04:54.854Z,4.00
2019-03-11T16:07:35.886Z,4.83
2019-03-11T16:10:17.480Z,8.00
2019-03-11T16:12:58.542Z,6.03
2019-03-11T16:15:39.432Z,6.67
2019-03-11T16:18:20.032Z,6.00
2019-03-11T16:21:00.548Z,5.30
2019-03-11T16:23:41.341Z,3.60
2019-03-11T16:29:04.520Z,7.63
2019-03-11T16:31:45.553Z,9.77
2019-03-11T16:34:27.056Z,11.03
2019-03-11T16:37:08.433Z,6.10
2019-03-11T16:39:49.361Z,13.93
2019-03-11T16:42:30.195Z,11.43
2019-03-11T16:45:11.181Z,11.93
2019-03-11T16:47:52.446Z,5.43
2019-03-11T16:50:33.841Z,7.83
2019-03-11T16:53:14.553Z,6.70
2019-03-11T16:55:55.126Z,5.40
2019-03-11T16:58:35.911Z,6.57
2019-03-11T17:01:16.548Z,5.33
2019-03-11T17:03:57.302Z,5.53
2019-03-11T17:06:38.097Z,8.87
2019-03-11T17:09:08.912Z,7.27
2019-03-11T17:11:57.014Z,14.80
2019-03-11T17:14:45.153Z,5.00
2019-03-11T17:17:33.278Z,11.33
2019-03-11T17:20:21.400Z,6.03
2019-03-11T17:23:09.504Z,15.73
2019-03-11T17:25:57.635Z,6.23
2019-03-11T17:28:26.527Z,7.27
2019-03-11T17:31:14.671Z,13.70
2019-03-11T17:34:02.804Z,10.33
2019-03-11T17:36:31.753Z,14.37
2019-03-11T17:39:19.904Z,8.77
2019-03-11T17:42:08.125Z,7.77
2019-03-11T17:44:56.412Z,6.97
2019-03-11T17:47:44.586Z,9.23
2019-03-11T17:50:32.617Z,7.00
2019-03-11T17:53:01.477Z,6.07
2019-03-11T17:55:49.697Z,7.60
2019-03-11T17:58:38.097Z,8.03
2019-03-11T18:01:26.369Z,9.57
2019-03-11T18:04:07.726Z,11.13
2019-03-11T18:06:48.193Z,12.07
2019-03-11T18:09:30.894Z,46.13
2019-03-11T18:12:11.695Z,29.80
2019-03-11T18:14:52.571Z,20.70
2019-03-11T18:17:33.447Z,24.50
2019-03-11T18:20:14.450Z,9.60
2019-03-11T18:22:55.119Z,7.97
2019-03-11T18:25:36.082Z,7.37
2019-03-11T18:28:17.001Z,11.27
2019-03-11T18:30:58.032Z,16.40
2019-03-11T18:36:21.906Z,10.50
2019-03-11T18:39:02.388Z,7.60
2019-03-11T18:41:44.063Z,6.63
2019-03-11T18:44:25.519Z,7.70
2019-03-11T18:47:05.905Z,7.13
2019-03-11T18:52:28.824Z,5.70
2019-03-11T18:55:10.047Z,5.90
2019-03-11T18:57:50.997Z,6.77
2019-03-11T19:00:32.184Z,5.67
2019-03-11T19:03:13.151Z,5.60
2019-03-11T19:08:21.602Z,5.53
2019-03-11T19:10:50.570Z,8.47
2019-03-11T19:13:38.642Z,6.70
2019-03-11T19:16:26.670Z,6.47
2019-03-11T19:19:15.133Z,5.60
2019-03-11T19:22:03.284Z,5.37
2019-03-11T19:24:51.439Z,4.93
2019-03-11T19:27:20.452Z,5.17
2019-03-11T19:30:10.974Z,5.77
2019-03-11T19:32:59.046Z,6.07
2019-03-11T19:35:47.139Z,6.40
2019-03-11T19:38:35.198Z,6.67
2019-03-11T19:41:23.531Z,8.50
2019-03-11T19:44:11.834Z,6.27
2019-03-11T19:47:00.105Z,8.17
2019-03-11T19:49:48.384Z,7.00
2019-03-11T19:52:37.414Z,6.20
2019-03-11T19:55:25.870Z,6.60
2019-03-11T19:58:14.134Z,7.67
2019-03-11T20:01:02.538Z,7.47
2019-03-11T20:03:50.677Z,9.17
2019-03-11T20:06:38.812Z,7.90
2019-03-11T20:09:27.054Z,7.40
2019-03-11T20:12:15.269Z,9.30
2019-03-11T20:15:03.570Z,19.47
2019-03-11T20:17:51.722Z,12.17
2019-03-11T20:20:39.932Z,8.63
2019-03-11T20:23:28.155Z,7.60
2019-03-11T20:26:18.516Z,13.17
2019-03-11T20:29:06.442Z,16.37
2019-03-11T20:31:56.050Z,8.80
2019-03-11T20:34:45.553Z,8.87
2019-03-11T20:37:33.939Z,9.63
2019-03-11T20:40:22.148Z,13.30
2019-03-11T20:43:11.296Z,11.63
2019-03-11T20:46:01.578Z,12.47
2019-03-11T20:48:49.993Z,12.63
2019-03-11T20:51:38.239Z,11.93
2019-03-11T20:54:26.590Z,11.37
2019-03-11T20:56:55.648Z,10.10
2019-03-11T20:59:44.030Z,11.40
2019-03-11T21:02:32.333Z,11.30
2019-03-11T21:05:21.923Z,10.23
2019-03-11T21:08:06.140Z,10.90
2019-03-11T21:10:35.405Z,8.30
2019-03-11T21:13:24.068Z,9.23
2019-03-11T21:16:12.356Z,9.23
2019-03-11T21:19:00.625Z,9.40
2019-03-11T21:21:48.841Z,9.60
2019-03-11T21:24:38.119Z,8.47
2019-03-11T21:27:27.039Z,9.43
2019-03-11T21:30:16.242Z,8.30
2019-03-11T21:33:04.462Z,8.80
2019-03-11T21:35:52.699Z,8.73
2019-03-11T21:38:40.939Z,8.50
2019-03-11T21:41:29.383Z,6.87
2019-03-11T21:44:17.632Z,6.40
2019-03-11T21:47:06.209Z,6.43
2019-03-11T21:49:54.302Z,7.27
2019-03-11T21:52:42.470Z,7.43
2019-03-11T21:55:30.830Z,8.83
2019-03-11T21:58:18.997Z,7.37
2019-03-11T22:01:07.206Z,8.37
2019-03-11T22:03:55.339Z,8.00
2019-03-11T22:06:43.521Z,7.97
2019-03-11T22:09:24.214Z,7.60
2019-03-11T22:14:47.374Z,8.80
2019-03-11T22:17:28.246Z,6.40
2019-03-11T22:20:09.588Z,7.33
2019-03-11T22:22:50.986Z,9.53
2019-03-11T22:25:32.288Z,6.43
2019-03-11T22:28:13.383Z,8.13
2019-03-11T22:33:36.170Z,5.77
2019-03-11T22:36:16.816Z,8.47
2019-03-11T22:38:57.513Z,7.43
2019-03-11T22:44:20.714Z,7.87
2019-03-11T22:47:01.311Z,8.33
2019-03-11T22:49:42.304Z,12.18
2019-03-11T22:52:23.718Z,8.87
2019-03-11T22:55:04.604Z,8.30
2019-03-11T22:57:46.019Z,7.73
2019-03-11T23:00:28.940Z,9.77
2019-03-11T23:03:10.247Z,9.67
2019-03-11T23:05:57.707Z,8.57
2019-03-11T23:08:34.327Z,9.20
2019-03-11T23:11:15.638Z,9.23
2019-03-11T23:13:56.566Z,9.03
2019-03-11T23:16:37.374Z,7.97
2019-03-11T23:19:18.148Z,6.53
2019-03-11T23:21:59.481Z,8.00
2019-03-11T23:24:40.089Z,6.47
2019-03-11T23:27:21.391Z,5.27
2019-03-11T23:30:02.066Z,5.93
2019-03-11T23:32:42.792Z,7.27
2019-03-11T23:35:23.718Z,8.47
2019-03-11T23:38:04.507Z,7.40
2019-03-11T23:40:45.209Z,8.77
2019-03-11T23:43:25.897Z,7.20
2019-03-11T23:46:06.694Z,8.57
2019-03-11T23:48:47.648Z,9.47
2019-03-11T23:51:28.922Z,9.07
2019-03-11T23:54:10.280Z,9.07
2019-03-11T23:56:51.155Z,9.30
2019-03-11T23:59:31.916Z,8.03
